Chadwick Bay, New York
Current Conditions -  °F | °C
As of 6:53 AM on Thursday 29 Jan 2015 (Local Time) from KDKK Reporting Station
Overcast Overcast  
Wind Chill: 25°   Ceiling: 10000
Heat Index: 25°   Visibility: 10mi
Dew Point: 10°   Wind: 3mph
Humidity: 53%   Direction: 330°NNW
Pressure: 30.06"   Gusts: NA
Location:  42.4788°N, 79.3113°W
Report Text: KDKK 291153Z AUTO 33003KT 10SM OVC100 M04/M12 A3006 RMK AO2 SLP191 T10391122 11039 21133 56041
Loading
Personal Weather Stations






























Interactive Weather Map New forecast layout! Learn more

10-Day Weather Forecast

Advertisements
Track Severe Weather on mobile